sim
Sign-in with your pilot id or email,
or register
Callsign
Passwort

Schedule Details

Flight Number: EWG1752 (2)
Departure: Munich Airport (EDDM) at 05:45
Arrival: London Stansted Airport (EGSS) at 07:35
Route: Eurowings Passenger Schedule. Enter filed route here before submitting Pirep.

Weather Information
Getting current METAR information for EDDM 250650Z 20007KT 9999 RA FEW020 BKN040 12/11 Q1001 TEMPO 28015G25KT
Getting current METAR information for EGSS 250650Z AUTO 31011KT 280V350 9999 -RA BKN010/// OVC039/// //////TCU 08/07 Q0997

Schedule Frequency

Route Map